Time;durP1;ratioP1;P1;durP2;ratioP2;P2;SDS_P1;SDS_P2;PMS_P1;PMS_P2;Temp;Humidity;BMP_temperature;BMP_pressure;BME280_temperature;BME280_humidity;BME280_pressure;Samples;Min_cycle;Max_cycle;Signal;HPM_P1;HPM_P2
2022/01/24 00:00:31;;;;;;;17.00;7.68;;;;;;;8.91;68.59;102916.91;7390147;19;20028;-67
2022/01/24 00:02:58;;;;;;;11.68;6.50;;;;;;;8.87;67.75;102918.03;7390755;19;20493;-67
2022/01/24 00:05:27;;;;;;;10.30;6.22;;;;;;;8.86;69.49;102911.94;7393555;19;20022;-67
2022/01/24 00:07:55;;;;;;;17.67;8.32;;;;;;;8.86;68.91;102905.81;7388201;19;20431;-66
2022/01/24 00:10:26;;;;;;;20.63;8.43;;;;;;;8.82;69.05;102902.53;7391018;19;20305;-66
2022/01/24 00:13:15;;;;;;;18.20;8.07;;;;;;;8.81;69.15;102900.00;7388661;19;20061;-68
2022/01/24 00:26:46;;;;;;;17.95;8.50;;;;;;;8.76;70.41;102897.66;7389784;19;20039;-66
2022/01/24 00:29:16;;;;;;;18.40;9.27;;;;;;;8.77;70.08;102888.00;7387999;19;20736;-67
2022/01/24 00:31:45;;;;;;;18.63;8.98;;;;;;;8.76;70.00;102888.94;7392228;19;20045;-66
2022/01/24 00:34:15;;;;;;;20.35;11.25;;;;;;;8.76;70.73;102881.91;7389928;19;20360;-67
2022/01/24 00:36:48;;;;;;;24.95;10.95;;;;;;;8.76;71.41;102874.03;7386401;19;20034;-67
2022/01/24 00:39:18;;;;;;;17.63;8.43;;;;;;;8.76;71.11;102878.44;7386810;19;20018;-67
2022/01/24 00:47:01;;;;;;;20.42;9.40;;;;;;;8.76;71.17;102884.53;7387706;19;20014;-66
2022/01/24 00:55:01;;;;;;;21.00;10.52;;;;;;;8.76;69.85;102888.94;7392628;19;20095;-65
2022/01/24 00:57:29;;;;;;;20.92;9.65;;;;;;;8.76;70.63;102883.69;7386164;19;20027;-67
2022/01/24 00:59:57;;;;;;;20.88;10.73;;;;;;;8.77;70.30;102885.38;7388784;19;20012;-67
2022/01/24 01:02:38;;;;;;;18.77;9.52;;;;;;;8.79;71.05;102892.22;7387687;19;20346;-66
2022/01/24 01:08:12;;;;;;;23.08;11.35;;;;;;;8.76;71.46;102895.03;7390293;19;20155;-67
2022/01/24 01:18:35;;;;;;;24.38;9.75;;;;;;;8.69;69.67;102877.94;7386246;19;20029;-66
2022/01/24 01:21:09;;;;;;;20.88;9.77;;;;;;;8.71;69.96;102883.09;7386383;19;20018;-67
2022/01/24 01:23:42;;;;;;;19.92;9.10;;;;;;;8.70;70.37;102877.00;7385140;19;20007;-66
2022/01/24 01:29:16;;;;;;;18.13;9.00;;;;;;;8.74;71.31;102878.50;7384991;19;20098;-66
2022/01/24 01:53:17;;;;;;;25.70;13.07;;;;;;;8.59;72.11;102874.16;7391272;19;20008;-67
2022/01/24 01:55:46;;;;;;;25.52;11.25;;;;;;;8.58;72.52;102875.94;7393497;19;20458;-66
2022/01/24 01:58:18;;;;;;;21.75;10.60;;;;;;;8.53;71.15;102871.91;7390220;19;20386;-66
2022/01/24 02:00:48;;;;;;;22.75;9.88;;;;;;;8.53;70.40;102874.53;7394302;19;20010;-67
2022/01/24 02:03:18;;;;;;;18.80;9.52;;;;;;;8.53;70.02;102864.88;7392404;19;20010;-66
2022/01/24 02:05:46;;;;;;;24.73;10.75;;;;;;;8.55;69.79;102868.25;7391945;19;20006;-65
2022/01/24 02:08:13;;;;;;;24.40;10.75;;;;;;;8.58;71.73;102869.88;7385498;19;20007;-67
2022/01/24 02:10:42;;;;;;;22.33;10.80;;;;;;;8.59;71.75;102868.91;7396309;19;20014;-66
2022/01/24 02:13:14;;;;;;;23.27;11.60;;;;;;;8.57;70.83;102876.03;7395214;19;20019;-67
2022/01/24 02:15:58;;;;;;;25.63;11.57;;;;;;;8.55;71.60;102876.13;7395156;19;20622;-66
2022/01/24 02:23:59;;;;;;;20.65;10.23;;;;;;;8.45;70.64;102874.13;7391948;19;20014;-66
2022/01/24 02:26:30;;;;;;;21.02;9.80;;;;;;;8.40;70.22;102877.00;7393560;19;20023;-66
2022/01/24 02:31:42;;;;;;;20.42;8.80;;;;;;;8.41;69.50;102864.75;7391272;19;20011;-65
2022/01/24 02:34:21;;;;;;;22.88;9.85;;;;;;;8.39;69.36;102872.69;7392832;19;20022;-67
2022/01/24 02:36:53;;;;;;;18.70;9.13;;;;;;;8.37;69.32;102869.34;7391432;19;20011;-67
2022/01/24 02:49:54;;;;;;;20.55;9.50;;;;;;;8.42;70.76;102872.53;7392573;19;20297;-67
2022/01/24 02:52:25;;;;;;;27.88;10.88;;;;;;;8.42;71.38;102885.66;7392253;19;20029;-66
2022/01/24 02:54:52;;;;;;;29.10;13.00;;;;;;;8.44;72.19;102872.44;7391531;19;20011;-66
2022/01/24 02:57:20;;;;;;;27.05;12.98;;;;;;;8.44;71.94;102877.66;7391778;19;20007;-66
2022/01/24 02:59:48;;;;;;;28.15;12.68;;;;;;;8.44;71.76;102872.44;7392931;19;20015;-66
2022/01/24 03:02:16;;;;;;;28.48;13.57;;;;;;;8.41;71.31;102877.84;7392236;19;20479;-67
2022/01/24 03:04:43;;;;;;;29.45;13.07;;;;;;;8.33;70.67;102883.53;7391635;19;20440;-67
2022/01/24 03:07:10;;;;;;;26.55;12.30;;;;;;;8.31;71.28;102880.16;7394219;19;20551;-67
2022/01/24 03:09:36;;;;;;;22.80;10.60;;;;;;;8.33;71.29;102874.84;7382903;19;20011;-66
2022/01/24 03:12:08;;;;;;;22.20;10.05;;;;;;;8.32;70.17;102871.38;7394075;19;20218;-66
2022/01/24 03:14:36;;;;;;;21.65;10.52;;;;;;;8.32;71.84;102868.75;7393560;19;20010;-68
2022/01/24 03:17:06;;;;;;;22.88;10.20;;;;;;;8.32;70.25;102870.53;7391878;19;20143;-67
2022/01/24 03:19:34;;;;;;;26.05;12.05;;;;;;;8.34;71.29;102866.00;7388579;19;20631;-66
2022/01/24 03:22:02;;;;;;;23.65;10.68;;;;;;;8.33;71.52;102853.88;7390529;19;20023;-66
2022/01/24 03:24:29;;;;;;;31.15;13.68;;;;;;;8.34;72.00;102851.13;7391019;19;20124;-65
2022/01/24 03:26:56;;;;;;;29.48;12.32;;;;;;;8.35;72.08;102851.97;7393651;19;20371;-67
2022/01/24 03:29:24;;;;;;;27.33;11.82;;;;;;;8.33;71.67;102846.00;7390884;19;20003;-67
2022/01/24 03:31:51;;;;;;;25.45;11.20;;;;;;;8.32;70.60;102846.91;7390458;19;20085;-66
2022/01/24 03:34:18;;;;;;;23.13;10.82;;;;;;;8.30;71.17;102843.53;7394412;19;20077;-67
2022/01/24 03:36:45;;;;;;;22.30;9.88;;;;;;;8.29;70.84;102840.03;7387744;19;20034;-66
2022/01/24 03:39:13;;;;;;;29.40;11.23;;;;;;;8.31;71.84;102845.22;7387830;19;20491;-66
2022/01/24 03:41:40;;;;;;;24.98;9.82;;;;;;;8.29;70.61;102849.66;7383241;19;21492;-66
2022/01/24 03:44:11;;;;;;;23.92;9.20;;;;;;;8.24;69.85;102833.34;7391574;19;20044;-67
2022/01/24 03:51:55;;;;;;;24.40;10.80;;;;;;;8.18;70.00;102838.00;7388146;19;20018;-66
2022/01/24 03:54:22;;;;;;;23.70;10.90;;;;;;;8.23;70.55;102834.31;7386777;19;20011;-66
2022/01/24 03:56:49;;;;;;;24.48;10.65;;;;;;;8.24;71.26;102823.72;7388172;19;20359;-66
2022/01/24 03:59:16;;;;;;;26.08;11.23;;;;;;;8.26;70.66;102823.63;7391894;19;20011;-65
2022/01/24 04:01:43;;;;;;;26.70;12.27;;;;;;;8.23;69.87;102826.44;7390258;19;20011;-65
2022/01/24 04:04:10;;;;;;;27.20;12.27;;;;;;;8.23;71.15;102824.63;7387871;19;20007;-67
2022/01/24 04:06:37;;;;;;;25.27;10.57;;;;;;;8.19;70.68;102820.50;7390234;19;20006;-66
2022/01/24 04:09:05;;;;;;;23.38;10.40;;;;;;;8.16;70.01;102828.56;7390442;19;20062;-67
2022/01/24 04:11:37;;;;;;;24.02;9.70;;;;;;;8.13;70.04;102820.84;7381014;19;20018;-66
2022/01/24 04:14:24;;;;;;;25.02;10.85;;;;;;;8.12;71.34;102820.03;7389192;19;20006;-65
2022/01/24 04:22:17;;;;;;;27.70;11.23;;;;;;;8.10;71.93;102814.03;7386246;19;20443;-65
2022/01/24 04:24:47;;;;;;;24.20;10.80;;;;;;;8.06;71.28;102815.13;7385328;19;20025;-66
2022/01/24 04:27:14;;;;;;;23.48;9.98;;;;;;;8.07;70.97;102815.97;7386990;19;20357;-67
2022/01/24 04:29:45;;;;;;;23.38;10.40;;;;;;;8.02;70.70;102820.66;7388360;19;20368;-67
2022/01/24 04:32:12;;;;;;;29.20;11.38;;;;;;;8.04;71.03;102814.38;7390592;19;20106;-68
2022/01/24 04:34:39;;;;;;;26.20;11.05;;;;;;;8.04;70.52;102817.00;7394218;19;20679;-68
2022/01/24 04:37:06;;;;;;;24.30;10.43;;;;;;;8.03;69.91;102815.28;7388518;19;20030;-66
2022/01/24 04:39:33;;;;;;;24.35;9.50;;;;;;;8.06;70.00;102811.66;7389243;19;20504;-65
2022/01/24 04:42:07;;;;;;;28.67;11.93;;;;;;;8.05;70.70;102813.44;7387237;19;20073;-66
2022/01/24 04:55:09;;;;;;;27.00;11.57;;;;;;;8.06;70.02;102822.16;7387837;19;20301;-67
2022/01/24 04:57:37;;;;;;;28.85;11.85;;;;;;;8.07;70.34;102816.84;7385584;19;20010;-67
2022/01/24 05:00:08;;;;;;;29.33;11.52;;;;;;;8.09;70.17;102811.47;7389690;19;20019;-66
2022/01/24 05:02:41;;;;;;;29.23;12.00;;;;;;;8.12;70.82;102819.19;7386108;19;20011;-66
2022/01/24 05:05:13;;;;;;;25.88;10.05;;;;;;;8.11;70.78;102814.88;7394300;19;20014;-67
2022/01/24 05:07:40;;;;;;;25.65;9.88;;;;;;;8.07;69.40;102824.69;7400710;19;20627;-66
2022/01/24 05:10:18;;;;;;;26.65;11.25;;;;;;;8.03;70.05;102820.53;7399436;19;20176;-65
2022/01/24 05:25:47;;;;;;;29.75;13.32;;;;;;;7.98;70.49;102833.06;7402825;19;20013;-67
2022/01/24 05:28:14;;;;;;;28.13;11.20;;;;;;;7.98;71.04;102826.97;7398974;19;20044;-66
2022/01/24 05:30:41;;;;;;;26.98;11.10;;;;;;;7.95;69.80;102833.25;7400698;19;20006;-67
2022/01/24 05:33:08;;;;;;;29.45;12.63;;;;;;;7.91;71.19;102836.13;7399679;19;20014;-66
2022/01/24 05:35:47;;;;;;;26.65;10.27;;;;;;;7.88;70.57;102839.75;7401889;19;20025;-66
2022/01/24 05:38:14;;;;;;;27.42;11.93;;;;;;;7.84;70.43;102840.84;7402625;19;20353;-66
2022/01/24 05:40:42;;;;;;;29.67;12.13;;;;;;;7.82;70.89;102842.72;7401955;19;20015;-67
2022/01/24 05:43:09;;;;;;;30.88;11.85;;;;;;;7.87;71.25;102850.34;7400694;19;20418;-67
2022/01/24 05:45:37;;;;;;;22.55;10.68;;;;;;;7.83;71.87;102852.25;7396269;19;20035;-66
2022/01/24 05:48:05;;;;;;;23.42;10.30;;;;;;;7.82;70.12;102847.97;7404891;19;20018;-66
2022/01/24 05:50:32;;;;;;;25.17;11.40;;;;;;;7.81;69.73;102848.03;7398551;19;20006;-65
2022/01/24 05:52:59;;;;;;;21.88;9.98;;;;;;;7.82;69.62;102847.97;7399568;19;20003;-68
2022/01/24 05:55:26;;;;;;;30.25;12.02;;;;;;;7.86;70.25;102852.09;7399789;19;20034;-67
2022/01/24 05:57:53;;;;;;;29.55;13.15;;;;;;;7.87;70.83;102856.41;7398574;19;20468;-66
2022/01/24 06:00:22;;;;;;;26.33;11.45;;;;;;;7.88;70.79;102858.09;7398086;19;20028;-66
2022/01/24 06:02:49;;;;;;;26.27;10.88;;;;;;;7.85;70.46;102855.66;7397456;19;20018;-67
2022/01/24 06:05:16;;;;;;;28.33;11.60;;;;;;;7.91;70.99;102855.31;7401218;19;20094;-67
2022/01/24 06:07:43;;;;;;;26.95;11.15;;;;;;;7.90;71.01;102858.84;7398371;19;20373;-66
2022/01/24 06:10:10;;;;;;;25.85;11.57;;;;;;;7.86;70.57;102859.13;7396574;19;20082;-65
2022/01/24 06:12:38;;;;;;;24.88;10.48;;;;;;;7.87;70.83;102858.19;7398584;19;20593;-66
2022/01/24 06:15:12;;;;;;;36.85;12.57;;;;;;;7.87;70.31;102866.91;7398762;19;20006;-66
2022/01/24 06:17:39;;;;;;;33.30;12.98;;;;;;;7.91;73.07;102863.19;7389376;19;20080;-65
2022/01/24 06:20:07;;;;;;;28.67;11.45;;;;;;;7.88;70.90;102865.94;7396139;19;20030;-67
2022/01/24 06:22:39;;;;;;;26.35;10.55;;;;;;;7.83;69.79;102864.50;7390981;19;20007;-66
2022/01/24 06:25:08;;;;;;;30.50;11.97;;;;;;;7.85;70.51;102868.75;7391801;19;20027;-67
2022/01/24 06:27:42;;;;;;;26.20;10.93;;;;;;;7.87;70.13;102859.03;7393274;19;20018;-67
2022/01/24 06:30:11;;;;;;;29.15;11.90;;;;;;;7.87;70.82;102864.28;7389793;19;20023;-66
2022/01/24 06:32:40;;;;;;;26.95;11.52;;;;;;;7.90;69.78;102864.09;7392932;19;20022;-66
2022/01/24 06:35:17;;;;;;;28.17;11.05;;;;;;;7.86;71.23;102859.97;7394154;19;20027;-67
2022/01/24 06:37:44;;;;;;;26.92;10.63;;;;;;;7.83;70.46;102861.88;7392709;19;20078;-67
2022/01/24 06:40:13;;;;;;;30.95;12.05;;;;;;;7.84;70.51;102858.34;7394309;19;20023;-67
2022/01/24 06:42:42;;;;;;;25.23;10.32;;;;;;;7.84;70.73;102858.34;7390411;19;20032;-65
2022/01/24 06:45:10;;;;;;;31.65;11.98;;;;;;;7.90;71.82;102856.25;7393223;19;20017;-67
2022/01/24 06:47:38;;;;;;;29.20;12.05;;;;;;;7.86;71.61;102865.22;7385939;19;20102;-65
2022/01/24 06:50:07;;;;;;;26.50;11.75;;;;;;;7.87;70.21;102866.06;7393711;19;20455;-67
2022/01/24 06:52:35;;;;;;;29.13;11.77;;;;;;;7.86;70.92;102864.34;7390524;19;20014;-66
2022/01/24 06:55:04;;;;;;;27.48;10.95;;;;;;;7.85;71.34;102863.50;7392896;19;20007;-66
2022/01/24 06:57:31;;;;;;;29.52;12.85;;;;;;;7.83;71.58;102870.59;7391204;19;20007;-67
2022/01/24 06:59:59;;;;;;;27.77;12.45;;;;;;;7.78;71.42;102871.78;7396909;19;20015;-66
2022/01/24 07:02:27;;;;;;;28.98;12.02;;;;;;;7.76;70.18;102865.78;7391575;19;20018;-67
2022/01/24 07:04:55;;;;;;;24.45;10.45;;;;;;;7.74;69.21;102863.25;7389426;19;20036;-66
2022/01/24 07:07:22;;;;;;;29.20;11.15;;;;;;;7.76;69.55;102871.88;7394547;19;20015;-65
2022/01/24 07:09:50;;;;;;;28.02;11.65;;;;;;;7.77;71.04;102876.19;7392338;19;20344;-66
2022/01/24 07:12:17;;;;;;;29.00;12.93;;;;;;;7.79;72.15;102878.72;7393813;19;20025;-67
2022/01/24 07:14:46;;;;;;;28.42;11.43;;;;;;;7.76;69.76;102882.38;7392746;19;20006;-67
2022/01/24 07:19:54;;;;;;;31.33;11.98;;;;;;;7.71;71.17;102892.25;7384081;19;20052;-67
2022/01/24 07:22:24;;;;;;;30.10;12.40;;;;;;;7.75;72.13;102893.75;7390265;19;20066;-66
2022/01/24 07:24:52;;;;;;;27.83;11.80;;;;;;;7.76;72.91;102892.84;7392129;19;20003;-66
2022/01/24 07:27:24;;;;;;;30.13;11.32;;;;;;;7.73;70.79;102891.22;7390596;19;20162;-67
2022/01/24 07:29:51;;;;;;;27.63;11.45;;;;;;;7.74;69.93;102899.94;7391865;19;20058;-66
2022/01/24 07:32:28;;;;;;;24.88;10.73;;;;;;;7.74;70.56;102900.78;7393084;19;20049;-66
2022/01/24 07:34:58;;;;;;;32.13;13.73;;;;;;;7.73;70.77;102900.84;7395123;19;20021;-68
2022/01/24 07:37:26;;;;;;;29.92;12.10;;;;;;;7.73;72.08;102895.59;7389914;19;20011;-65
2022/01/24 07:39:55;;;;;;;27.35;12.35;;;;;;;7.72;71.40;102912.25;7393672;19;20010;-67
2022/01/24 07:42:50;;;;;;;30.20;12.77;;;;;;;7.76;72.76;102915.56;7391011;19;20017;-66
2022/01/24 07:45:09;;;;;;;32.35;12.35;;;;;;;7.72;71.22;102910.47;7390477;19;20631;-66
2022/01/24 07:47:36;;;;;;;31.35;12.30;;;;;;;7.71;71.04;102910.59;7393265;19;20035;-67
2022/01/24 07:50:06;;;;;;;31.30;12.43;;;;;;;7.72;70.53;102915.72;7382531;19;20007;-67
2022/01/24 07:52:36;;;;;;;30.40;13.82;;;;;;;7.68;70.71;102910.72;7389947;19;20357;-66
2022/01/24 07:55:03;;;;;;;28.13;11.80;;;;;;;7.66;70.73;102920.47;7391556;19;20024;-66
2022/01/24 07:57:32;;;;;;;30.13;12.95;;;;;;;7.68;70.03;102913.34;7391570;19;20045;-68
2022/01/24 08:00:00;;;;;;;32.00;12.95;;;;;;;7.67;70.68;102912.50;7393470;19;20044;-67
2022/01/24 08:02:30;;;;;;;29.90;12.55;;;;;;;7.69;70.75;102915.06;7390607;19;20074;-66
2022/01/24 08:04:58;;;;;;;32.17;13.63;;;;;;;7.69;70.74;102920.28;7389825;19;20019;-66
2022/01/24 08:07:26;;;;;;;28.90;12.63;;;;;;;7.67;71.34;102919.50;7391008;19;20114;-66
2022/01/24 08:09:53;;;;;;;32.92;13.48;;;;;;;7.68;70.96;102922.06;7392520;19;20078;-67
2022/01/24 08:12:20;;;;;;;30.40;13.32;;;;;;;7.70;71.81;102925.47;7393475;19;20010;-66
2022/01/24 08:14:47;;;;;;;31.63;14.15;;;;;;;7.70;71.21;102922.84;7390875;19;20018;-68
2022/01/24 08:17:18;;;;;;;30.90;12.93;;;;;;;7.67;71.75;102922.13;7394012;19;20066;-67
2022/01/24 08:19:47;;;;;;;33.58;14.05;;;;;;;7.68;72.41;102923.81;7391993;19;20033;-66
2022/01/24 08:22:14;;;;;;;34.50;14.13;;;;;;;7.69;72.39;102923.75;7383946;19;20010;-66
2022/01/24 08:24:51;;;;;;;32.45;13.93;;;;;;;7.72;73.60;102920.13;7391506;19;20070;-66
2022/01/24 08:27:19;;;;;;;36.97;14.98;;;;;;;7.73;73.70;102917.41;7389434;19;20031;-66
2022/01/24 08:29:52;;;;;;;35.25;14.75;;;;;;;7.70;72.08;102927.22;7392235;19;20011;-68
2022/01/24 08:32:20;;;;;;;32.42;13.50;;;;;;;7.68;71.41;102931.69;7388082;19;20002;-67
2022/01/24 08:34:56;;;;;;;32.13;13.48;;;;;;;7.67;72.02;102928.22;7393299;19;20066;-67
2022/01/24 08:37:30;;;;;;;34.78;15.80;;;;;;;7.70;72.31;102932.47;7387967;19;20090;-67
2022/01/24 08:39:59;;;;;;;37.15;14.20;;;;;;;7.71;71.81;102934.16;7384781;19;20021;-66
2022/01/24 08:42:44;;;;;;;36.97;13.68;;;;;;;7.72;71.48;102928.81;7392958;19;20398;-67
2022/01/24 08:47:58;;;;;;;32.47;13.50;;;;;;;7.63;71.87;102941.56;7390335;19;20047;-68
2022/01/24 08:50:27;;;;;;;35.25;14.48;;;;;;;7.60;71.87;102936.50;7390900;19;20026;-67
2022/01/24 08:53:03;;;;;;;31.88;12.82;;;;;;;7.64;72.49;102932.78;7382717;19;20010;-67
2022/01/24 08:55:32;;;;;;;36.25;13.93;;;;;;;7.62;72.25;102939.88;7386176;19;20010;-67
2022/01/24 08:58:00;;;;;;;39.22;14.07;;;;;;;7.61;72.65;102941.66;7384412;19;20023;-67
2022/01/24 09:00:28;;;;;;;36.30;14.02;;;;;;;7.60;73.60;102950.44;7385527;19;20013;-66
2022/01/24 09:02:56;;;;;;;34.72;12.63;;;;;;;7.59;75.96;102940.03;7386834;19;20677;-66
2022/01/24 09:05:24;;;;;;;39.03;14.98;;;;;;;7.65;77.65;102937.09;7391231;19;20021;-67
2022/01/24 09:07:52;;;;;;;37.72;15.05;;;;;;;7.62;75.35;102939.88;7388821;19;20023;-67
2022/01/24 09:10:24;;;;;;;37.00;15.75;;;;;;;7.60;74.72;102941.75;7384232;19;20014;-69
2022/01/24 09:12:52;;;;;;;37.17;13.88;;;;;;;7.61;74.96;102939.06;7385422;19;20010;-69
2022/01/24 09:15:19;;;;;;;42.33;15.95;;;;;;;7.63;74.31;102944.19;7384848;19;20027;-69
2022/01/24 09:17:46;;;;;;;35.10;14.45;;;;;;;7.61;73.98;102946.06;7388035;19;20054;-66
2022/01/24 09:20:14;;;;;;;43.90;16.20;;;;;;;7.60;74.61;102947.84;7387543;19;20014;-67
2022/01/24 09:22:43;;;;;;;34.33;13.23;;;;;;;7.63;75.57;102944.19;7381684;19;20014;-66
2022/01/24 09:25:12;;;;;;;42.80;14.57;;;;;;;7.65;75.48;102952.81;7387771;19;20026;-67
2022/01/24 09:27:39;;;;;;;37.75;15.93;;;;;;;7.65;74.67;102947.59;7387415;19;20409;-67
2022/01/24 09:30:09;;;;;;;35.75;14.07;;;;;;;7.65;74.12;102948.44;7384163;19;20074;-66
2022/01/24 09:32:36;;;;;;;37.47;14.38;;;;;;;7.63;74.38;102952.03;7385713;19;20714;-66
2022/01/24 09:35:06;;;;;;;39.33;14.23;;;;;;;7.66;74.48;102957.13;7386991;19;20022;-67
2022/01/24 09:37:34;;;;;;;36.20;13.00;;;;;;;7.66;74.68;102947.50;7383813;19;20019;-68
2022/01/24 09:40:01;;;;;;;37.33;14.15;;;;;;;7.69;75.77;102943.88;7384413;19;20074;-67
2022/01/24 09:42:28;;;;;;;35.50;12.95;;;;;;;7.70;74.79;102956.03;7385203;19;20017;-67
2022/01/24 09:44:56;;;;;;;31.95;11.85;;;;;;;7.61;74.03;102959.16;7385448;19;20018;-68
2022/01/24 09:47:24;;;;;;;32.63;13.32;;;;;;;7.64;74.89;102959.84;7387446;19;20082;-66
2022/01/24 09:49:52;;;;;;;36.22;13.85;;;;;;;7.66;74.33;102958.00;7382829;19;20006;-66
2022/01/24 09:52:19;;;;;;;32.13;13.15;;;;;;;7.67;74.96;102958.81;7389873;19;20014;-66
2022/01/24 09:54:47;;;;;;;33.08;12.68;;;;;;;7.66;74.91;102950.13;7383968;19;20423;-66
2022/01/24 09:57:14;;;;;;;32.58;13.10;;;;;;;7.69;74.48;102941.25;7391513;19;20015;-66
2022/01/24 09:59:41;;;;;;;32.08;12.55;;;;;;;7.70;74.44;102956.03;7394276;19;20022;-68
2022/01/24 10:02:08;;;;;;;34.85;13.75;;;;;;;7.67;73.17;102956.19;7393528;19;20013;-68
2022/01/24 10:04:36;;;;;;;36.22;14.48;;;;;;;7.66;74.33;102957.13;7395368;19;20014;-67
2022/01/24 10:07:15;;;;;;;41.33;17.10;;;;;;;7.66;73.61;102957.13;7391217;19;20011;-66
2022/01/24 10:09:46;;;;;;;33.47;13.27;;;;;;;7.70;74.97;102953.44;7390262;19;20032;-69
2022/01/24 10:17:39;;;;;;;43.00;16.23;;;;;;;7.69;75.75;102952.56;7394322;19;20588;-68
2022/01/24 10:20:28;;;;;;;35.22;13.05;;;;;;;7.69;75.97;102954.34;7397807;19;20563;-67
2022/01/24 10:23:16;;;;;;;31.92;13.00;;;;;;;7.60;74.48;102954.84;7393697;19;20017;-67
2022/01/24 10:25:53;;;;;;;28.40;11.38;;;;;;;7.54;73.01;102956.00;7388462;19;20007;-65
2022/01/24 10:28:24;;;;;;;36.63;14.43;;;;;;;7.51;74.58;102958.78;7395317;19;20078;-67
2022/01/24 10:31:20;;;;;;;32.42;12.73;;;;;;;7.50;73.97;102956.25;7395919;19;20027;-68
2022/01/24 10:34:09;;;;;;;31.77;12.60;;;;;;;7.52;74.11;102954.38;7394406;19;20021;-67
2022/01/24 10:36:46;;;;;;;29.15;11.52;;;;;;;7.49;73.89;102957.16;7397910;19;20324;-68
2022/01/24 10:39:33;;;;;;;27.67;11.32;;;;;;;7.46;73.92;102959.97;7391278;19;20019;-67
2022/01/24 10:44:57;;;;;;;30.65;13.18;;;;;;;7.47;74.82;102957.25;7393976;19;20030;-66
2022/01/24 10:47:28;;;;;;;29.15;10.60;;;;;;;7.44;73.31;102957.41;7395479;19;20081;-68
2022/01/24 10:50:00;;;;;;;33.17;12.20;;;;;;;7.43;73.52;102960.94;7392433;19;20006;-67
2022/01/24 10:52:30;;;;;;;27.85;11.15;;;;;;;7.44;73.93;102970.50;7394239;19;20025;-66
2022/01/24 10:55:17;;;;;;;32.35;13.80;;;;;;;7.46;74.57;102971.28;7390922;19;20873;-66
2022/01/24 10:58:06;;;;;;;25.73;11.38;;;;;;;7.42;73.47;102968.88;7382030;19;20007;-69
2022/01/24 11:00:35;;;;;;;31.10;13.43;;;;;;;7.43;74.21;102962.72;7392706;19;20038;-66
2022/01/24 11:03:04;;;;;;;29.40;11.55;;;;;;;7.47;74.57;102964.25;7393979;19;20340;-67
2022/01/24 11:05:39;;;;;;;31.35;13.63;;;;;;;7.51;75.96;102956.19;7393624;19;20014;-68
2022/01/24 11:08:09;;;;;;;31.95;14.02;;;;;;;7.56;76.59;102959.41;7395102;19;20042;-67
2022/01/24 11:10:54;;;;;;;35.40;12.27;;;;;;;7.62;74.64;102963.44;7390349;19;20090;-67
2022/01/24 11:13:31;;;;;;;28.50;11.15;;;;;;;7.59;73.87;102954.00;7395162;19;20029;-66
2022/01/24 11:16:02;;;;;;;29.92;12.05;;;;;;;7.62;74.54;102953.81;7393627;19;20070;-68
2022/01/24 11:18:32;;;;;;;26.42;10.98;;;;;;;7.64;74.44;102956.38;7392757;19;20014;-66
2022/01/24 11:21:12;;;;;;;30.13;12.23;;;;;;;7.65;74.09;102958.91;7394324;19;20022;-67
2022/01/24 11:23:48;;;;;;;32.50;14.10;;;;;;;7.66;74.49;102958.00;7394358;19;20014;-67
2022/01/24 11:26:19;;;;;;;28.30;12.68;;;;;;;7.63;73.46;102955.50;7391656;19;20672;-67
2022/01/24 11:28:46;;;;;;;29.85;11.35;;;;;;;7.65;73.79;102953.69;7383242;19;20003;-66
2022/01/24 11:31:20;;;;;;;29.60;11.80;;;;;;;7.67;72.90;102954.41;7393235;19;20006;-66
2022/01/24 11:33:59;;;;;;;31.40;13.57;;;;;;;7.70;74.51;102953.44;7393894;19;20043;-68
2022/01/24 11:36:40;;;;;;;32.03;14.52;;;;;;;7.67;73.42;102964.03;7394673;19;20090;-66
2022/01/24 11:39:21;;;;;;;28.73;12.38;;;;;;;7.69;72.63;102962.22;7391619;19;20018;-67
2022/01/24 11:41:48;;;;;;;27.63;11.07;;;;;;;7.66;72.46;102960.63;7392784;19;20006;-66
2022/01/24 11:44:18;;;;;;;26.33;10.50;;;;;;;7.66;72.41;102957.13;7389679;19;20066;-67
2022/01/24 11:46:56;;;;;;;33.28;13.07;;;;;;;7.66;72.99;102952.75;7381683;19;20010;-65
2022/01/24 11:49:32;;;;;;;27.30;11.95;;;;;;;7.62;72.67;102953.81;7391630;19;20014;-66
2022/01/24 11:52:14;;;;;;;28.45;11.88;;;;;;;7.64;73.36;102949.34;7389381;19;20651;-67
2022/01/24 11:54:48;;;;;;;34.60;14.60;;;;;;;7.70;73.96;102940.31;7393958;19;20365;-67
2022/01/24 11:57:35;;;;;;;40.50;16.55;;;;;;;7.70;74.64;102937.72;7391404;19;20014;-67
2022/01/24 12:00:07;;;;;;;32.85;12.15;;;;;;;7.68;72.87;102940.41;7391423;19;20034;-67
2022/01/24 12:02:45;;;;;;;29.92;12.45;;;;;;;7.69;73.48;102942.09;7387366;19;20014;-67
2022/01/24 12:05:13;;;;;;;29.60;12.30;;;;;;;7.67;72.93;102936.09;7388925;19;20097;-67
2022/01/24 12:07:52;;;;;;;27.98;11.70;;;;;;;7.65;73.12;102940.56;7385241;19;20080;-67
2022/01/24 12:10:47;;;;;;;32.65;13.13;;;;;;;7.64;73.28;102936.25;7392225;19;20027;-67
2022/01/24 12:13:25;;;;;;;31.40;12.85;;;;;;;7.61;73.79;102941.66;7388355;19;20018;-67
2022/01/24 12:15:58;;;;;;;31.35;13.60;;;;;;;7.65;72.51;102927.47;7393684;19;20512;-66
2022/01/24 12:18:27;;;;;;;32.38;13.93;;;;;;;7.64;73.04;102930.16;7390809;19;20090;-68
2022/01/24 12:20:58;;;;;;;33.47;14.60;;;;;;;7.67;72.93;102938.69;7390096;19;20424;-66
2022/01/24 12:23:53;;;;;;;33.65;13.82;;;;;;;7.65;73.27;102924.84;7391538;19;20014;-66
2022/01/24 12:26:50;;;;;;;27.83;10.40;;;;;;;7.61;72.70;102922.50;7393633;19;20014;-66
2022/01/24 12:29:41;;;;;;;26.92;11.27;;;;;;;7.65;73.64;102917.00;7391558;19;20015;-67
2022/01/24 12:32:21;;;;;;;37.53;13.20;;;;;;;7.69;74.72;102918.53;7389319;19;20402;-66
2022/01/24 12:34:49;;;;;;;29.50;12.43;;;;;;;7.67;73.17;102916.88;7393214;19;20007;-66
2022/01/24 12:37:29;;;;;;;29.17;12.65;;;;;;;7.67;72.58;102911.66;7387152;19;20006;-68
2022/01/24 12:40:02;;;;;;;31.38;12.88;;;;;;;7.67;72.66;102919.50;7387201;19;20065;-67
2022/01/24 12:42:51;;;;;;;32.72;13.20;;;;;;;7.65;72.84;102914.38;7390518;19;20062;-66
2022/01/24 12:48:49;;;;;;;29.98;12.32;;;;;;;7.63;72.78;102907.50;7389206;19;20014;-68
2022/01/24 12:51:22;;;;;;;27.77;11.15;;;;;;;7.65;73.03;102913.53;7393191;19;20444;-68
2022/01/24 12:53:51;;;;;;;30.67;12.60;;;;;;;7.66;73.01;102910.84;7389306;19;20479;-66
2022/01/24 12:56:24;;;;;;;32.30;13.20;;;;;;;7.72;73.10;102912.25;7390688;19;20007;-66
2022/01/24 12:58:52;;;;;;;30.58;13.27;;;;;;;7.77;74.05;102909.41;7390328;19;20023;-67
2022/01/24 13:01:33;;;;;;;34.78;15.27;;;;;;;7.81;73.89;102905.69;7388773;19;20007;-68
2022/01/24 13:04:10;;;;;;;32.65;12.57;;;;;;;7.82;73.97;102910.00;7391406;19;20017;-67
2022/01/24 13:06:43;;;;;;;30.75;11.95;;;;;;;7.80;73.17;102899.59;7390042;19;20018;-67
2022/01/24 13:09:15;;;;;;;31.35;13.35;;;;;;;7.80;71.77;102896.13;7387891;19;20524;-68
2022/01/24 13:11:54;;;;;;;33.65;12.57;;;;;;;7.88;74.73;102897.41;7384639;19;20007;-68
2022/01/24 13:14:43;;;;;;;30.50;13.77;;;;;;;7.89;73.42;102895.63;7392284;19;20612;-67
2022/01/24 13:22:58;;;;;;;32.47;13.43;;;;;;;7.85;71.87;102899.34;7393080;19;20011;-66
2022/01/24 13:25:36;;;;;;;30.05;12.77;;;;;;;7.84;72.09;102887.16;7391582;19;19999;-67
2022/01/24 13:28:15;;;;;;;30.75;13.15;;;;;;;7.81;72.19;102882.97;7398458;19;20468;-67
2022/01/24 13:30:46;;;;;;;32.65;12.50;;;;;;;7.84;73.97;102887.16;7398285;19;20335;-65
2022/01/24 13:33:20;;;;;;;31.67;12.48;;;;;;;7.79;71.72;102887.41;7399300;19;20042;-66
2022/01/24 13:35:59;;;;;;;37.00;14.88;;;;;;;7.77;72.65;102872.72;7395549;19;20608;-67
2022/01/24 13:38:35;;;;;;;29.17;12.27;;;;;;;7.77;72.48;102870.97;7396696;19;20467;-67
2022/01/24 13:41:11;;;;;;;30.38;12.30;;;;;;;7.79;73.12;102870.84;7394512;19;20493;-67
2022/01/24 13:44:09;;;;;;;37.15;13.85;;;;;;;7.83;73.31;102864.50;7396495;19;20018;-66
2022/01/24 13:46:41;;;;;;;29.45;12.05;;;;;;;7.86;72.99;102867.81;7396468;19;20655;-67
2022/01/24 13:49:16;;;;;;;31.80;12.88;;;;;;;7.82;72.23;102866.31;7397391;19;20026;-68
2022/01/24 13:51:49;;;;;;;;;;;;;;;7.82;72.04;102860.22;7395662;19;20035;-65